sensor_id;sensor_type;location;lat;lon;timestamp;P1;durP1;ratioP1;P2;durP2;ratioP2
26080;SDS011;13991;51.174;4.438;2022-12-29T00:01:17;2.30;;;0.80;;
26080;SDS011;13991;51.174;4.438;2022-12-29T00:03:45;2.93;;;1.20;;
26080;SDS011;13991;51.174;4.438;2022-12-29T00:06:11;4.10;;;0.90;;
26080;SDS011;13991;51.174;4.438;2022-12-29T00:08:37;2.50;;;1.20;;
26080;SDS011;13991;51.174;4.438;2022-12-29T00:11:10;5.10;;;1.10;;
26080;SDS011;13991;51.174;4.438;2022-12-29T00:13:41;1.33;;;0.97;;
26080;SDS011;13991;51.174;4.438;2022-12-29T00:16:26;7.03;;;1.10;;
26080;SDS011;13991;51.174;4.438;2022-12-29T00:18:52;4.03;;;1.20;;
26080;SDS011;13991;51.174;4.438;2022-12-29T00:21:20;1.67;;;1.17;;
26080;SDS011;13991;51.174;4.438;2022-12-29T00:24:05;1.40;;;0.93;;
26080;SDS011;13991;51.174;4.438;2022-12-29T00:26:53;3.07;;;1.00;;
26080;SDS011;13991;51.174;4.438;2022-12-29T00:29:52;2.90;;;0.90;;
26080;SDS011;13991;51.174;4.438;2022-12-29T00:32:42;3.30;;;1.00;;
26080;SDS011;13991;51.174;4.438;2022-12-29T00:37:54;3.77;;;0.80;;
26080;SDS011;13991;51.174;4.438;2022-12-29T00:40:40;3.40;;;0.80;;
26080;SDS011;13991;51.174;4.438;2022-12-29T00:43:25;1.47;;;0.50;;
26080;SDS011;13991;51.174;4.438;2022-12-29T00:46:09;2.00;;;0.50;;
26080;SDS011;13991;51.174;4.438;2022-12-29T00:48:35;4.17;;;0.60;;
26080;SDS011;13991;51.174;4.438;2022-12-29T00:51:39;1.80;;;0.60;;
26080;SDS011;13991;51.174;4.438;2022-12-29T00:54:05;4.13;;;0.50;;
26080;SDS011;13991;51.174;4.438;2022-12-29T00:56:31;6.07;;;0.83;;
26080;SDS011;13991;51.174;4.438;2022-12-29T00:58:59;1.17;;;0.60;;
26080;SDS011;13991;51.174;4.438;2022-12-29T01:01:50;1.07;;;0.67;;
26080;SDS011;13991;51.174;4.438;2022-12-29T01:04:18;2.87;;;0.50;;
26080;SDS011;13991;51.174;4.438;2022-12-29T01:06:45;4.57;;;0.50;;
26080;SDS011;13991;51.174;4.438;2022-12-29T01:09:12;5.03;;;0.80;;
26080;SDS011;13991;51.174;4.438;2022-12-29T01:11:56;9.63;;;0.60;;
26080;SDS011;13991;51.174;4.438;2022-12-29T01:14:25;5.40;;;0.90;;
26080;SDS011;13991;51.174;4.438;2022-12-29T01:16:58;2.27;;;0.60;;
26080;SDS011;13991;51.174;4.438;2022-12-29T01:19:32;6.93;;;0.77;;
26080;SDS011;13991;51.174;4.438;2022-12-29T01:21:58;6.13;;;0.97;;
26080;SDS011;13991;51.174;4.438;2022-12-29T01:24:31;7.50;;;0.90;;
26080;SDS011;13991;51.174;4.438;2022-12-29T01:27:02;4.07;;;0.70;;
26080;SDS011;13991;51.174;4.438;2022-12-29T01:29:28;6.60;;;0.60;;
26080;SDS011;13991;51.174;4.438;2022-12-29T01:32:03;3.83;;;0.43;;
26080;SDS011;13991;51.174;4.438;2022-12-29T01:34:30;8.30;;;0.70;;
26080;SDS011;13991;51.174;4.438;2022-12-29T01:37:03;6.83;;;0.63;;
26080;SDS011;13991;51.174;4.438;2022-12-29T01:39:46;8.77;;;0.97;;
26080;SDS011;13991;51.174;4.438;2022-12-29T01:42:16;3.60;;;0.60;;
26080;SDS011;13991;51.174;4.438;2022-12-29T01:45:13;7.77;;;0.90;;
26080;SDS011;13991;51.174;4.438;2022-12-29T01:47:52;14.10;;;0.77;;
26080;SDS011;13991;51.174;4.438;2022-12-29T01:50:40;7.80;;;0.90;;
26080;SDS011;13991;51.174;4.438;2022-12-29T01:56:26;3.40;;;0.90;;
26080;SDS011;13991;51.174;4.438;2022-12-29T01:59:02;4.83;;;0.67;;
26080;SDS011;13991;51.174;4.438;2022-12-29T02:01:37;3.80;;;0.70;;
26080;SDS011;13991;51.174;4.438;2022-12-29T02:04:17;7.50;;;0.90;;
26080;SDS011;13991;51.174;4.438;2022-12-29T02:07:11;4.00;;;0.70;;
26080;SDS011;13991;51.174;4.438;2022-12-29T02:09:53;9.63;;;1.27;;
26080;SDS011;13991;51.174;4.438;2022-12-29T02:12:59;5.93;;;0.80;;
26080;SDS011;13991;51.174;4.438;2022-12-29T02:15:42;1.90;;;0.50;;
26080;SDS011;13991;51.174;4.438;2022-12-29T02:18:33;1.73;;;0.43;;
26080;SDS011;13991;51.174;4.438;2022-12-29T02:27:25;5.73;;;1.20;;
26080;SDS011;13991;51.174;4.438;2022-12-29T02:41:29;5.73;;;0.53;;
26080;SDS011;13991;51.174;4.438;2022-12-29T02:46:53;4.60;;;0.53;;
26080;SDS011;13991;51.174;4.438;2022-12-29T02:49:33;5.67;;;0.60;;
26080;SDS011;13991;51.174;4.438;2022-12-29T02:54:41;5.17;;;0.73;;
26080;SDS011;13991;51.174;4.438;2022-12-29T02:59:39;5.00;;;0.40;;
26080;SDS011;13991;51.174;4.438;2022-12-29T03:02:10;4.37;;;0.60;;
26080;SDS011;13991;51.174;4.438;2022-12-29T03:22:04;4.57;;;0.60;;
26080;SDS011;13991;51.174;4.438;2022-12-29T03:24:54;6.53;;;0.90;;
26080;SDS011;13991;51.174;4.438;2022-12-29T03:27:34;5.10;;;0.40;;
26080;SDS011;13991;51.174;4.438;2022-12-29T03:30:06;12.53;;;0.93;;
26080;SDS011;13991;51.174;4.438;2022-12-29T03:32:55;8.13;;;1.00;;
26080;SDS011;13991;51.174;4.438;2022-12-29T03:35:22;4.60;;;0.50;;
26080;SDS011;13991;51.174;4.438;2022-12-29T03:38:13;5.83;;;0.80;;
26080;SDS011;13991;51.174;4.438;2022-12-29T03:41:03;12.23;;;1.03;;
26080;SDS011;13991;51.174;4.438;2022-12-29T03:43:30;9.70;;;0.57;;
26080;SDS011;13991;51.174;4.438;2022-12-29T03:45:56;10.90;;;0.70;;
26080;SDS011;13991;51.174;4.438;2022-12-29T03:48:22;12.60;;;1.20;;
26080;SDS011;13991;51.174;4.438;2022-12-29T03:50:48;13.10;;;0.83;;
26080;SDS011;13991;51.174;4.438;2022-12-29T03:53:16;7.93;;;0.90;;
26080;SDS011;13991;51.174;4.438;2022-12-29T03:55:43;13.30;;;1.07;;
26080;SDS011;13991;51.174;4.438;2022-12-29T03:58:09;16.23;;;1.47;;
26080;SDS011;13991;51.174;4.438;2022-12-29T04:00:35;5.67;;;1.10;;
26080;SDS011;13991;51.174;4.438;2022-12-29T04:03:07;8.37;;;1.53;;
26080;SDS011;13991;51.174;4.438;2022-12-29T04:05:33;11.00;;;0.87;;
26080;SDS011;13991;51.174;4.438;2022-12-29T04:07:59;6.97;;;0.90;;
26080;SDS011;13991;51.174;4.438;2022-12-29T04:10:42;17.33;;;3.00;;
26080;SDS011;13991;51.174;4.438;2022-12-29T04:13:08;10.43;;;1.45;;
26080;SDS011;13991;51.174;4.438;2022-12-29T04:15:34;11.40;;;1.13;;
26080;SDS011;13991;51.174;4.438;2022-12-29T04:17:59;17.43;;;1.20;;
26080;SDS011;13991;51.174;4.438;2022-12-29T04:20:26;9.37;;;1.10;;
26080;SDS011;13991;51.174;4.438;2022-12-29T04:23:10;9.33;;;0.80;;
26080;SDS011;13991;51.174;4.438;2022-12-29T04:25:36;8.60;;;1.50;;
26080;SDS011;13991;51.174;4.438;2022-12-29T04:28:02;10.10;;;1.00;;
26080;SDS011;13991;51.174;4.438;2022-12-29T04:30:27;16.73;;;1.83;;
26080;SDS011;13991;51.174;4.438;2022-12-29T04:32:53;9.40;;;0.80;;
26080;SDS011;13991;51.174;4.438;2022-12-29T04:35:19;15.33;;;1.40;;
26080;SDS011;13991;51.174;4.438;2022-12-29T04:37:45;17.27;;;1.13;;
26080;SDS011;13991;51.174;4.438;2022-12-29T04:40:11;11.87;;;1.73;;
26080;SDS011;13991;51.174;4.438;2022-12-29T04:42:36;10.87;;;1.13;;
26080;SDS011;13991;51.174;4.438;2022-12-29T04:45:02;9.93;;;1.87;;
26080;SDS011;13991;51.174;4.438;2022-12-29T04:47:28;13.83;;;1.47;;
26080;SDS011;13991;51.174;4.438;2022-12-29T04:49:54;8.17;;;1.03;;
26080;SDS011;13991;51.174;4.438;2022-12-29T04:52:19;10.83;;;1.00;;
26080;SDS011;13991;51.174;4.438;2022-12-29T04:54:45;7.97;;;1.00;;
26080;SDS011;13991;51.174;4.438;2022-12-29T04:57:11;8.57;;;0.90;;
26080;SDS011;13991;51.174;4.438;2022-12-29T04:59:37;12.47;;;1.37;;
26080;SDS011;13991;51.174;4.438;2022-12-29T05:02:04;5.23;;;1.00;;
26080;SDS011;13991;51.174;4.438;2022-12-29T05:04:30;5.23;;;1.23;;
26080;SDS011;13991;51.174;4.438;2022-12-29T05:06:55;8.83;;;0.70;;
26080;SDS011;13991;51.174;4.438;2022-12-29T05:09:21;15.30;;;0.80;;
26080;SDS011;13991;51.174;4.438;2022-12-29T05:11:48;12.50;;;1.03;;
26080;SDS011;13991;51.174;4.438;2022-12-29T05:14:14;4.97;;;0.87;;
26080;SDS011;13991;51.174;4.438;2022-12-29T05:16:40;9.83;;;0.93;;
26080;SDS011;13991;51.174;4.438;2022-12-29T05:19:06;9.50;;;1.00;;
26080;SDS011;13991;51.174;4.438;2022-12-29T05:21:32;7.77;;;0.97;;
26080;SDS011;13991;51.174;4.438;2022-12-29T05:23:58;14.60;;;1.17;;
26080;SDS011;13991;51.174;4.438;2022-12-29T05:26:26;5.33;;;0.77;;
26080;SDS011;13991;51.174;4.438;2022-12-29T05:28:52;7.00;;;0.60;;
26080;SDS011;13991;51.174;4.438;2022-12-29T05:31:18;6.17;;;0.60;;
26080;SDS011;13991;51.174;4.438;2022-12-29T05:33:46;12.20;;;1.07;;
26080;SDS011;13991;51.174;4.438;2022-12-29T05:36:33;10.63;;;1.10;;
26080;SDS011;13991;51.174;4.438;2022-12-29T05:39:20;6.03;;;0.63;;
26080;SDS011;13991;51.174;4.438;2022-12-29T05:41:53;2.73;;;0.80;;
26080;SDS011;13991;51.174;4.438;2022-12-29T05:44:37;4.27;;;0.70;;
26080;SDS011;13991;51.174;4.438;2022-12-29T05:47:11;6.50;;;0.70;;
26080;SDS011;13991;51.174;4.438;2022-12-29T05:49:59;8.63;;;0.77;;
26080;SDS011;13991;51.174;4.438;2022-12-29T05:52:31;10.57;;;1.20;;
26080;SDS011;13991;51.174;4.438;2022-12-29T05:55:12;9.77;;;1.17;;
26080;SDS011;13991;51.174;4.438;2022-12-29T05:57:42;7.03;;;1.20;;
26080;SDS011;13991;51.174;4.438;2022-12-29T06:00:12;9.07;;;0.80;;
26080;SDS011;13991;51.174;4.438;2022-12-29T06:02:40;13.70;;;1.03;;
26080;SDS011;13991;51.174;4.438;2022-12-29T06:05:09;14.20;;;1.33;;
26080;SDS011;13991;51.174;4.438;2022-12-29T06:07:36;14.93;;;1.73;;
26080;SDS011;13991;51.174;4.438;2022-12-29T06:10:02;6.33;;;1.47;;
26080;SDS011;13991;51.174;4.438;2022-12-29T06:15:13;11.53;;;1.23;;
26080;SDS011;13991;51.174;4.438;2022-12-29T06:18:03;12.27;;;1.60;;
26080;SDS011;13991;51.174;4.438;2022-12-29T06:20:32;12.67;;;0.87;;
26080;SDS011;13991;51.174;4.438;2022-12-29T06:23:04;12.80;;;1.07;;
26080;SDS011;13991;51.174;4.438;2022-12-29T06:25:42;11.50;;;1.13;;
26080;SDS011;13991;51.174;4.438;2022-12-29T06:28:11;15.60;;;1.37;;
26080;SDS011;13991;51.174;4.438;2022-12-29T06:30:49;15.13;;;1.40;;
26080;SDS011;13991;51.174;4.438;2022-12-29T06:33:29;7.90;;;1.10;;
26080;SDS011;13991;51.174;4.438;2022-12-29T06:36:05;8.30;;;1.40;;
26080;SDS011;13991;51.174;4.438;2022-12-29T06:38:38;20.47;;;1.63;;
26080;SDS011;13991;51.174;4.438;2022-12-29T06:41:22;13.60;;;2.17;;
26080;SDS011;13991;51.174;4.438;2022-12-29T06:44:19;21.93;;;1.77;;
26080;SDS011;13991;51.174;4.438;2022-12-29T06:46:50;18.77;;;3.10;;
26080;SDS011;13991;51.174;4.438;2022-12-29T06:52:20;18.17;;;1.60;;
26080;SDS011;13991;51.174;4.438;2022-12-29T06:55:13;16.17;;;1.90;;
26080;SDS011;13991;51.174;4.438;2022-12-29T06:57:53;14.30;;;1.80;;
26080;SDS011;13991;51.174;4.438;2022-12-29T07:00:35;14.07;;;1.40;;
26080;SDS011;13991;51.174;4.438;2022-12-29T07:03:01;22.30;;;2.47;;
26080;SDS011;13991;51.174;4.438;2022-12-29T07:05:52;11.43;;;1.60;;
26080;SDS011;13991;51.174;4.438;2022-12-29T07:08:26;14.37;;;1.50;;
26080;SDS011;13991;51.174;4.438;2022-12-29T07:11:05;13.90;;;1.50;;
26080;SDS011;13991;51.174;4.438;2022-12-29T07:13:33;33.40;;;3.03;;
26080;SDS011;13991;51.174;4.438;2022-12-29T07:15:59;18.13;;;1.97;;
26080;SDS011;13991;51.174;4.438;2022-12-29T07:18:40;18.77;;;2.20;;
26080;SDS011;13991;51.174;4.438;2022-12-29T07:21:31;22.50;;;1.70;;
26080;SDS011;13991;51.174;4.438;2022-12-29T07:24:02;19.83;;;1.70;;
26080;SDS011;13991;51.174;4.438;2022-12-29T07:26:28;16.97;;;2.17;;
26080;SDS011;13991;51.174;4.438;2022-12-29T07:28:59;23.30;;;2.40;;
26080;SDS011;13991;51.174;4.438;2022-12-29T07:31:33;18.90;;;2.13;;
26080;SDS011;13991;51.174;4.438;2022-12-29T07:34:04;15.07;;;2.20;;
26080;SDS011;13991;51.174;4.438;2022-12-29T07:39:18;23.47;;;2.63;;
26080;SDS011;13991;51.174;4.438;2022-12-29T07:42:08;29.13;;;1.70;;
26080;SDS011;13991;51.174;4.438;2022-12-29T07:44:53;16.50;;;1.70;;
26080;SDS011;13991;51.174;4.438;2022-12-29T07:47:39;15.53;;;2.23;;
26080;SDS011;13991;51.174;4.438;2022-12-29T07:50:17;14.73;;;1.70;;
26080;SDS011;13991;51.174;4.438;2022-12-29T07:52:45;12.57;;;2.17;;
26080;SDS011;13991;51.174;4.438;2022-12-29T07:55:26;17.87;;;2.20;;
26080;SDS011;13991;51.174;4.438;2022-12-29T07:58:04;18.50;;;1.87;;
26080;SDS011;13991;51.174;4.438;2022-12-29T08:01:00;14.17;;;1.70;;
26080;SDS011;13991;51.174;4.438;2022-12-29T08:03:32;30.40;;;4.07;;
26080;SDS011;13991;51.174;4.438;2022-12-29T08:08:59;11.70;;;1.43;;
26080;SDS011;13991;51.174;4.438;2022-12-29T08:11:29;20.30;;;1.70;;
26080;SDS011;13991;51.174;4.438;2022-12-29T08:13:57;10.37;;;1.57;;
26080;SDS011;13991;51.174;4.438;2022-12-29T08:16:26;19.80;;;2.40;;
26080;SDS011;13991;51.174;4.438;2022-12-29T08:18:57;17.53;;;1.37;;
26080;SDS011;13991;51.174;4.438;2022-12-29T08:21:30;15.90;;;1.70;;
26080;SDS011;13991;51.174;4.438;2022-12-29T08:24:13;21.23;;;2.37;;
26080;SDS011;13991;51.174;4.438;2022-12-29T08:26:50;13.23;;;2.23;;
26080;SDS011;13991;51.174;4.438;2022-12-29T08:29:15;13.47;;;2.30;;
26080;SDS011;13991;51.174;4.438;2022-12-29T08:32:04;17.27;;;1.83;;
26080;SDS011;13991;51.174;4.438;2022-12-29T08:45:04;15.87;;;1.73;;
26080;SDS011;13991;51.174;4.438;2022-12-29T08:47:46;21.37;;;2.33;;
26080;SDS011;13991;51.174;4.438;2022-12-29T08:54:20;11.20;;;1.90;;
26080;SDS011;13991;51.174;4.438;2022-12-29T08:56:49;13.80;;;1.70;;
26080;SDS011;13991;51.174;4.438;2022-12-29T08:59:27;18.20;;;2.40;;
26080;SDS011;13991;51.174;4.438;2022-12-29T09:02:25;18.93;;;2.23;;
26080;SDS011;13991;51.174;4.438;2022-12-29T09:05:14;13.30;;;1.67;;
26080;SDS011;13991;51.174;4.438;2022-12-29T09:14:14;24.77;;;3.07;;
26080;SDS011;13991;51.174;4.438;2022-12-29T09:16:47;17.73;;;3.03;;
26080;SDS011;13991;51.174;4.438;2022-12-29T09:35:33;21.33;;;2.63;;
26080;SDS011;13991;51.174;4.438;2022-12-29T09:37:59;19.23;;;2.27;;
26080;SDS011;13991;51.174;4.438;2022-12-29T09:40:29;23.33;;;2.27;;
26080;SDS011;13991;51.174;4.438;2022-12-29T09:51:53;18.03;;;1.77;;
26080;SDS011;13991;51.174;4.438;2022-12-29T10:03:54;18.07;;;2.83;;
26080;SDS011;13991;51.174;4.438;2022-12-29T10:06:22;22.30;;;2.83;;
26080;SDS011;13991;51.174;4.438;2022-12-29T10:13:18;27.50;;;2.63;;
26080;SDS011;13991;51.174;4.438;2022-12-29T10:21:08;30.77;;;3.10;;
26080;SDS011;13991;51.174;4.438;2022-12-29T10:24:06;19.70;;;2.30;;
26080;SDS011;13991;51.174;4.438;2022-12-29T10:26:41;24.87;;;2.70;;
26080;SDS011;13991;51.174;4.438;2022-12-29T10:29:33;30.53;;;3.10;;
26080;SDS011;13991;51.174;4.438;2022-12-29T10:32:15;26.23;;;2.93;;
26080;SDS011;13991;51.174;4.438;2022-12-29T10:43:50;24.20;;;3.07;;
26080;SDS011;13991;51.174;4.438;2022-12-29T10:46:35;36.13;;;3.90;;
26080;SDS011;13991;51.174;4.438;2022-12-29T10:49:38;25.97;;;2.80;;
26080;SDS011;13991;51.174;4.438;2022-12-29T10:52:27;33.57;;;3.33;;
26080;SDS011;13991;51.174;4.438;2022-12-29T10:55:00;24.67;;;3.13;;
26080;SDS011;13991;51.174;4.438;2022-12-29T10:57:51;23.80;;;3.90;;
26080;SDS011;13991;51.174;4.438;2022-12-29T11:00:23;23.70;;;2.40;;
26080;SDS011;13991;51.174;4.438;2022-12-29T11:09:24;24.20;;;2.70;;
26080;SDS011;13991;51.174;4.438;2022-12-29T11:12:43;17.80;;;2.37;;
26080;SDS011;13991;51.174;4.438;2022-12-29T11:18:39;24.37;;;3.20;;
26080;SDS011;13991;51.174;4.438;2022-12-29T11:21:54;23.13;;;3.03;;
26080;SDS011;13991;51.174;4.438;2022-12-29T11:27:26;18.13;;;2.57;;
26080;SDS011;13991;51.174;4.438;2022-12-29T11:34:05;17.17;;;2.47;;
26080;SDS011;13991;51.174;4.438;2022-12-29T11:43:23;9.07;;;1.53;;
26080;SDS011;13991;51.174;4.438;2022-12-29T11:46:02;24.03;;;3.07;;
26080;SDS011;13991;51.174;4.438;2022-12-29T11:48:53;18.47;;;2.07;;
26080;SDS011;13991;51.174;4.438;2022-12-29T11:51:44;29.43;;;3.40;;
26080;SDS011;13991;51.174;4.438;2022-12-29T11:54:31;24.43;;;2.30;;
26080;SDS011;13991;51.174;4.438;2022-12-29T11:57:18;22.10;;;2.37;;
26080;SDS011;13991;51.174;4.438;2022-12-29T12:00:00;16.50;;;1.70;;
26080;SDS011;13991;51.174;4.438;2022-12-29T12:10:05;24.13;;;2.67;;
26080;SDS011;13991;51.174;4.438;2022-12-29T12:20:03;21.13;;;2.47;;
26080;SDS011;13991;51.174;4.438;2022-12-29T12:23:43;17.83;;;2.20;;
26080;SDS011;13991;51.174;4.438;2022-12-29T12:30:04;21.30;;;3.03;;
26080;SDS011;13991;51.174;4.438;2022-12-29T12:38:56;24.43;;;3.53;;
26080;SDS011;13991;51.174;4.438;2022-12-29T12:44:39;27.67;;;3.70;;
26080;SDS011;13991;51.174;4.438;2022-12-29T12:47:27;37.40;;;3.53;;
26080;SDS011;13991;51.174;4.438;2022-12-29T12:50:22;34.10;;;3.77;;
26080;SDS011;13991;51.174;4.438;2022-12-29T12:53:22;19.10;;;3.43;;
26080;SDS011;13991;51.174;4.438;2022-12-29T13:07:47;27.77;;;1.93;;
26080;SDS011;13991;51.174;4.438;2022-12-29T13:13:22;25.63;;;2.70;;
26080;SDS011;13991;51.174;4.438;2022-12-29T13:24:01;22.10;;;2.63;;
26080;SDS011;13991;51.174;4.438;2022-12-29T13:26:43;13.37;;;2.07;;
26080;SDS011;13991;51.174;4.438;2022-12-29T13:29:33;15.13;;;2.57;;
26080;SDS011;13991;51.174;4.438;2022-12-29T13:32:27;22.23;;;2.00;;
26080;SDS011;13991;51.174;4.438;2022-12-29T13:41:01;14.93;;;1.93;;
26080;SDS011;13991;51.174;4.438;2022-12-29T13:44:01;23.90;;;1.53;;
26080;SDS011;13991;51.174;4.438;2022-12-29T13:46:33;30.87;;;2.20;;
26080;SDS011;13991;51.174;4.438;2022-12-29T13:49:07;19.47;;;2.23;;
26080;SDS011;13991;51.174;4.438;2022-12-29T13:51:54;24.83;;;2.37;;
26080;SDS011;13991;51.174;4.438;2022-12-29T13:54:33;20.43;;;1.33;;
26080;SDS011;13991;51.174;4.438;2022-12-29T14:00:29;13.60;;;1.70;;
26080;SDS011;13991;51.174;4.438;2022-12-29T14:03:33;12.83;;;2.00;;
26080;SDS011;13991;51.174;4.438;2022-12-29T14:08:55;19.43;;;2.07;;
26080;SDS011;13991;51.174;4.438;2022-12-29T14:11:30;15.10;;;2.00;;
26080;SDS011;13991;51.174;4.438;2022-12-29T14:16:50;24.30;;;2.37;;
26080;SDS011;13991;51.174;4.438;2022-12-29T14:19:30;11.67;;;1.40;;
26080;SDS011;13991;51.174;4.438;2022-12-29T14:22:00;10.87;;;0.90;;
26080;SDS011;13991;51.174;4.438;2022-12-29T14:24:38;12.77;;;1.47;;
26080;SDS011;13991;51.174;4.438;2022-12-29T14:34:52;8.80;;;1.37;;
26080;SDS011;13991;51.174;4.438;2022-12-29T14:42:48;13.03;;;1.77;;
26080;SDS011;13991;51.174;4.438;2022-12-29T14:48:02;6.43;;;0.90;;
26080;SDS011;13991;51.174;4.438;2022-12-29T14:50:48;8.37;;;1.07;;
26080;SDS011;13991;51.174;4.438;2022-12-29T14:56:12;10.50;;;1.20;;
26080;SDS011;13991;51.174;4.438;2022-12-29T15:01:35;7.03;;;0.70;;
26080;SDS011;13991;51.174;4.438;2022-12-29T15:04:13;13.00;;;1.43;;
26080;SDS011;13991;51.174;4.438;2022-12-29T15:06:47;6.17;;;0.87;;
26080;SDS011;13991;51.174;4.438;2022-12-29T15:11:59;8.20;;;0.80;;
26080;SDS011;13991;51.174;4.438;2022-12-29T15:14:38;3.57;;;0.50;;
26080;SDS011;13991;51.174;4.438;2022-12-29T15:17:24;7.80;;;0.97;;
26080;SDS011;13991;51.174;4.438;2022-12-29T15:19:52;4.60;;;0.90;;
26080;SDS011;13991;51.174;4.438;2022-12-29T15:22:19;4.40;;;0.93;;
26080;SDS011;13991;51.174;4.438;2022-12-29T15:24:45;10.93;;;1.20;;
26080;SDS011;13991;51.174;4.438;2022-12-29T15:27:16;9.27;;;0.90;;
26080;SDS011;13991;51.174;4.438;2022-12-29T15:29:46;12.00;;;1.10;;
26080;SDS011;13991;51.174;4.438;2022-12-29T15:32:17;7.87;;;1.00;;
26080;SDS011;13991;51.174;4.438;2022-12-29T15:34:46;15.20;;;1.73;;
26080;SDS011;13991;51.174;4.438;2022-12-29T15:37:25;9.07;;;1.30;;
26080;SDS011;13991;51.174;4.438;2022-12-29T15:40:19;10.90;;;1.33;;
26080;SDS011;13991;51.174;4.438;2022-12-29T15:45:41;12.77;;;1.60;;
26080;SDS011;13991;51.174;4.438;2022-12-29T15:48:10;15.30;;;1.90;;
26080;SDS011;13991;51.174;4.438;2022-12-29T15:50:44;15.77;;;1.47;;
26080;SDS011;13991;51.174;4.438;2022-12-29T15:56:14;18.90;;;2.33;;
26080;SDS011;13991;51.174;4.438;2022-12-29T15:58:41;25.67;;;3.30;;
26080;SDS011;13991;51.174;4.438;2022-12-29T16:03:59;27.93;;;3.43;;
26080;SDS011;13991;51.174;4.438;2022-12-29T16:06:34;15.60;;;2.00;;
26080;SDS011;13991;51.174;4.438;2022-12-29T16:09:28;11.93;;;2.40;;
26080;SDS011;13991;51.174;4.438;2022-12-29T16:12:19;17.63;;;2.20;;
26080;SDS011;13991;51.174;4.438;2022-12-29T16:17:24;17.97;;;2.60;;
26080;SDS011;13991;51.174;4.438;2022-12-29T16:23:10;11.20;;;1.40;;
26080;SDS011;13991;51.174;4.438;2022-12-29T16:25:55;25.23;;;3.00;;
26080;SDS011;13991;51.174;4.438;2022-12-29T16:28:30;21.53;;;2.40;;
26080;SDS011;13991;51.174;4.438;2022-12-29T16:31:02;18.30;;;2.10;;
26080;SDS011;13991;51.174;4.438;2022-12-29T16:33:36;27.90;;;2.40;;
26080;SDS011;13991;51.174;4.438;2022-12-29T16:36:24;24.77;;;3.00;;
26080;SDS011;13991;51.174;4.438;2022-12-29T16:47:54;11.33;;;1.23;;
26080;SDS011;13991;51.174;4.438;2022-12-29T16:51:09;21.67;;;2.07;;
26080;SDS011;13991;51.174;4.438;2022-12-29T16:53:57;31.97;;;3.10;;
26080;SDS011;13991;51.174;4.438;2022-12-29T16:56:49;24.83;;;2.50;;
26080;SDS011;13991;51.174;4.438;2022-12-29T16:59:25;15.87;;;1.90;;
26080;SDS011;13991;51.174;4.438;2022-12-29T17:02:14;28.60;;;2.80;;
26080;SDS011;13991;51.174;4.438;2022-12-29T17:04:52;21.57;;;2.53;;
26080;SDS011;13991;51.174;4.438;2022-12-29T17:07:28;23.50;;;2.60;;
26080;SDS011;13991;51.174;4.438;2022-12-29T17:10:19;26.77;;;3.70;;
26080;SDS011;13991;51.174;4.438;2022-12-29T17:13:09;21.03;;;3.10;;
26080;SDS011;13991;51.174;4.438;2022-12-29T17:15:37;26.90;;;3.73;;
26080;SDS011;13991;51.174;4.438;2022-12-29T17:18:06;22.37;;;2.87;;
26080;SDS011;13991;51.174;4.438;2022-12-29T17:20:37;35.03;;;5.00;;
26080;SDS011;13991;51.174;4.438;2022-12-29T17:23:21;24.70;;;3.40;;
26080;SDS011;13991;51.174;4.438;2022-12-29T17:25:58;24.67;;;3.20;;
26080;SDS011;13991;51.174;4.438;2022-12-29T17:28:25;35.60;;;4.23;;
26080;SDS011;13991;51.174;4.438;2022-12-29T17:30:58;23.17;;;3.20;;
26080;SDS011;13991;51.174;4.438;2022-12-29T17:33:32;30.17;;;3.90;;
26080;SDS011;13991;51.174;4.438;2022-12-29T17:36:06;22.30;;;3.43;;
26080;SDS011;13991;51.174;4.438;2022-12-29T17:38:34;26.83;;;2.87;;
26080;SDS011;13991;51.174;4.438;2022-12-29T17:41:11;26.77;;;3.57;;
26080;SDS011;13991;51.174;4.438;2022-12-29T17:43:41;28.17;;;3.37;;
26080;SDS011;13991;51.174;4.438;2022-12-29T17:46:09;18.10;;;3.33;;
26080;SDS011;13991;51.174;4.438;2022-12-29T17:48:46;27.13;;;3.93;;
26080;SDS011;13991;51.174;4.438;2022-12-29T17:51:14;23.93;;;3.80;;
26080;SDS011;13991;51.174;4.438;2022-12-29T17:54:02;21.30;;;3.27;;
26080;SDS011;13991;51.174;4.438;2022-12-29T17:56:30;42.37;;;3.70;;
26080;SDS011;13991;51.174;4.438;2022-12-29T17:59:00;31.43;;;2.97;;
26080;SDS011;13991;51.174;4.438;2022-12-29T18:01:55;28.17;;;4.53;;
26080;SDS011;13991;51.174;4.438;2022-12-29T18:05:02;33.23;;;2.53;;
26080;SDS011;13991;51.174;4.438;2022-12-29T18:07:39;21.87;;;3.07;;
26080;SDS011;13991;51.174;4.438;2022-12-29T18:10:16;22.70;;;3.33;;
26080;SDS011;13991;51.174;4.438;2022-12-29T18:12:43;37.60;;;4.47;;
26080;SDS011;13991;51.174;4.438;2022-12-29T18:15:36;20.80;;;3.73;;
26080;SDS011;13991;51.174;4.438;2022-12-29T18:18:12;32.57;;;4.60;;
26080;SDS011;13991;51.174;4.438;2022-12-29T18:20:57;33.83;;;4.70;;
26080;SDS011;13991;51.174;4.438;2022-12-29T18:23:42;22.60;;;2.63;;
26080;SDS011;13991;51.174;4.438;2022-12-29T18:26:19;34.83;;;3.63;;
26080;SDS011;13991;51.174;4.438;2022-12-29T18:28:49;32.33;;;3.60;;
26080;SDS011;13991;51.174;4.438;2022-12-29T18:31:33;32.03;;;3.33;;
26080;SDS011;13991;51.174;4.438;2022-12-29T18:34:06;24.63;;;3.23;;
26080;SDS011;13991;51.174;4.438;2022-12-29T18:36:37;36.10;;;4.40;;
26080;SDS011;13991;51.174;4.438;2022-12-29T18:39:03;21.73;;;2.67;;
26080;SDS011;13991;51.174;4.438;2022-12-29T18:41:30;34.80;;;4.90;;
26080;SDS011;13991;51.174;4.438;2022-12-29T18:44:12;29.30;;;3.07;;
26080;SDS011;13991;51.174;4.438;2022-12-29T18:46:46;33.47;;;3.73;;
26080;SDS011;13991;51.174;4.438;2022-12-29T18:49:12;37.37;;;3.93;;
26080;SDS011;13991;51.174;4.438;2022-12-29T18:51:38;30.50;;;4.17;;
26080;SDS011;13991;51.174;4.438;2022-12-29T18:54:04;29.57;;;3.43;;
26080;SDS011;13991;51.174;4.438;2022-12-29T18:56:33;27.00;;;3.00;;
26080;SDS011;13991;51.174;4.438;2022-12-29T18:58:59;25.80;;;3.17;;
26080;SDS011;13991;51.174;4.438;2022-12-29T19:01:25;22.87;;;3.13;;
26080;SDS011;13991;51.174;4.438;2022-12-29T19:03:52;25.43;;;3.57;;
26080;SDS011;13991;51.174;4.438;2022-12-29T19:06:18;27.90;;;3.40;;
26080;SDS011;13991;51.174;4.438;2022-12-29T19:08:45;30.00;;;2.57;;
26080;SDS011;13991;51.174;4.438;2022-12-29T19:11:11;38.57;;;4.03;;
26080;SDS011;13991;51.174;4.438;2022-12-29T19:13:36;24.60;;;3.90;;
26080;SDS011;13991;51.174;4.438;2022-12-29T19:16:02;28.53;;;3.40;;
26080;SDS011;13991;51.174;4.438;2022-12-29T19:18:28;29.43;;;3.07;;
26080;SDS011;13991;51.174;4.438;2022-12-29T19:20:54;19.13;;;2.50;;
26080;SDS011;13991;51.174;4.438;2022-12-29T19:23:24;26.87;;;2.80;;
26080;SDS011;13991;51.174;4.438;2022-12-29T19:25:52;19.10;;;2.77;;
26080;SDS011;13991;51.174;4.438;2022-12-29T19:28:20;20.60;;;2.67;;
26080;SDS011;13991;51.174;4.438;2022-12-29T19:30:51;23.33;;;2.80;;
26080;SDS011;13991;51.174;4.438;2022-12-29T19:33:18;27.30;;;2.57;;
26080;SDS011;13991;51.174;4.438;2022-12-29T19:35:45;25.50;;;6.43;;
26080;SDS011;13991;51.174;4.438;2022-12-29T19:38:11;30.57;;;3.73;;
26080;SDS011;13991;51.174;4.438;2022-12-29T19:40:40;37.53;;;4.30;;
26080;SDS011;13991;51.174;4.438;2022-12-29T19:43:08;27.90;;;3.10;;
26080;SDS011;13991;51.174;4.438;2022-12-29T19:45:38;16.10;;;2.37;;
26080;SDS011;13991;51.174;4.438;2022-12-29T19:48:04;20.80;;;3.13;;
26080;SDS011;13991;51.174;4.438;2022-12-29T19:50:31;20.03;;;3.10;;
26080;SDS011;13991;51.174;4.438;2022-12-29T19:52:56;22.73;;;2.83;;
26080;SDS011;13991;51.174;4.438;2022-12-29T19:55:22;20.30;;;2.87;;
26080;SDS011;13991;51.174;4.438;2022-12-29T19:57:48;14.73;;;2.60;;
26080;SDS011;13991;51.174;4.438;2022-12-29T20:00:14;22.80;;;3.33;;